createdAt,value
2023-05-09T00:01:46.476Z,101775.41
2023-05-09T00:04:13.219Z,101777.31
2023-05-09T00:06:39.815Z,101767.34
2023-05-09T00:09:06.372Z,101772.03
2023-05-09T00:11:32.974Z,101759.38
2023-05-09T00:13:59.535Z,101767.38
2023-05-09T00:16:26.135Z,101762.00
2023-05-09T00:18:52.863Z,101754.03
2023-05-09T00:21:19.440Z,101755.84
2023-05-09T00:23:49.354Z,101751.28
2023-05-09T00:26:16.373Z,101757.69
2023-05-09T00:28:43.007Z,101748.63
2023-05-09T00:31:09.590Z,101742.41
2023-05-09T00:33:36.266Z,101740.44
2023-05-09T00:36:02.844Z,101726.84
2023-05-09T00:38:29.398Z,101732.47
2023-05-09T00:40:55.964Z,101721.59
2023-05-09T00:43:22.559Z,101722.53
2023-05-09T00:45:49.491Z,101721.75
2023-05-09T00:48:16.659Z,101715.34
2023-05-09T00:50:43.808Z,101716.31
2023-05-09T00:53:10.735Z,101717.09
2023-05-09T00:55:37.314Z,101700.09
2023-05-09T00:58:03.876Z,101697.44
2023-05-09T01:00:30.441Z,101700.03
2023-05-09T01:02:57.261Z,101698.38
2023-05-09T01:05:29.447Z,101692.97
2023-05-09T01:08:27.051Z,101685.66
2023-05-09T01:11:08.807Z,101690.34
2023-05-09T01:14:08.769Z,101689.41
2023-05-09T01:16:39.692Z,101693.88
2023-05-09T01:19:45.934Z,101687.53
2023-05-09T01:22:14.201Z,101694.63
2023-05-09T01:25:07.560Z,101683.94
2023-05-09T01:27:37.005Z,101675.94
2023-05-09T01:30:04.816Z,101679.66
2023-05-09T01:32:33.970Z,101671.41
2023-05-09T01:35:03.061Z,101669.63
2023-05-09T01:37:34.295Z,101661.63
2023-05-09T01:40:08.572Z,101658.97
2023-05-09T01:42:57.930Z,101657.00
2023-05-09T01:45:25.083Z,101664.19
2023-05-09T01:47:51.978Z,101661.53
2023-05-09T01:50:18.958Z,101649.91
2023-05-09T01:52:50.538Z,101659.84
2023-05-09T01:55:19.197Z,101653.44
2023-05-09T01:57:45.892Z,101659.03
2023-05-09T02:00:14.281Z,101659.88
2023-05-09T02:02:41.762Z,101660.81
2023-05-09T02:05:09.905Z,101653.66
2023-05-09T02:07:38.058Z,101658.13
2023-05-09T02:10:05.925Z,101645.56
2023-05-09T02:12:32.490Z,101651.03
2023-05-09T02:14:59.384Z,101636.63
2023-05-09T02:17:26.223Z,101642.91
2023-05-09T02:19:52.827Z,101637.47
2023-05-09T02:22:25.513Z,101634.03
2023-05-09T02:24:52.190Z,101636.56
2023-05-09T02:27:19.709Z,101632.13
2023-05-09T02:29:49.201Z,101639.44
2023-05-09T02:32:17.413Z,101625.03
2023-05-09T02:34:45.467Z,101622.34
2023-05-09T02:37:13.459Z,101615.78
2023-05-09T02:39:40.068Z,101623.13
2023-05-09T02:42:09.710Z,101607.06
2023-05-09T02:44:36.753Z,101619.56
2023-05-09T02:47:03.809Z,101617.88
2023-05-09T02:49:32.696Z,101616.09
2023-05-09T02:51:59.934Z,101611.63
2023-05-09T02:54:26.545Z,101611.56
2023-05-09T02:56:53.138Z,101608.78
2023-05-09T02:59:20.304Z,101607.97
2023-05-09T03:01:46.999Z,101603.47
2023-05-09T03:04:13.601Z,101605.34
2023-05-09T03:06:40.369Z,101598.22
2023-05-09T03:09:07.204Z,101585.84
2023-05-09T03:11:36.897Z,101592.84
2023-05-09T03:14:04.204Z,101587.38
2023-05-09T03:16:31.361Z,101586.75
2023-05-09T03:18:57.973Z,101580.28
2023-05-09T03:21:24.529Z,101587.50
2023-05-09T03:23:51.253Z,101585.78
2023-05-09T03:26:22.456Z,101578.34
2023-05-09T03:28:49.059Z,101575.06
2023-05-09T03:31:16.359Z,101578.66
2023-05-09T03:33:42.964Z,101576.06
2023-05-09T03:36:09.727Z,101567.88
2023-05-09T03:38:36.315Z,101560.72
2023-05-09T03:41:02.899Z,101557.06
2023-05-09T03:43:29.473Z,101556.22
2023-05-09T03:45:56.078Z,101552.69
2023-05-09T03:48:22.625Z,101553.59
2023-05-09T03:50:49.179Z,101556.31
2023-05-09T03:53:15.977Z,101550.03
2023-05-09T03:55:42.538Z,101546.41
2023-05-09T03:58:09.155Z,101550.03
2023-05-09T04:00:35.724Z,101541.91
2023-05-09T04:03:02.402Z,101530.25
2023-05-09T04:05:29.055Z,101520.44
2023-05-09T04:07:55.628Z,101519.47
2023-05-09T04:10:22.544Z,101522.16
2023-05-09T04:12:49.122Z,101526.63
2023-05-09T04:15:16.037Z,101523.09
2023-05-09T04:17:44.437Z,101522.19
2023-05-09T04:20:11.735Z,101516.06
2023-05-09T04:22:39.148Z,101510.72
2023-05-09T04:25:06.563Z,101512.44
2023-05-09T04:27:33.116Z,101515.94
2023-05-09T04:30:00.225Z,101504.44
2023-05-09T04:32:27.057Z,101503.53
2023-05-09T04:34:53.650Z,101508.91
2023-05-09T04:37:20.278Z,101509.72
2023-05-09T04:39:50.650Z,101497.19
2023-05-09T04:42:17.251Z,101495.53
2023-05-09T04:44:43.831Z,101503.53
2023-05-09T04:47:10.416Z,101497.28
2023-05-09T04:49:36.960Z,101498.22
2023-05-09T04:52:03.599Z,101506.38
2023-05-09T04:54:30.168Z,101501.81
2023-05-09T04:57:06.361Z,101508.19
2023-05-09T04:59:40.717Z,101498.31
2023-05-09T05:02:07.274Z,101496.53
2023-05-09T05:04:38.412Z,101500.97
2023-05-09T05:07:05.361Z,101505.41
2023-05-09T05:09:31.901Z,101489.25
2023-05-09T05:12:02.354Z,101494.97
2023-05-09T05:14:29.740Z,101486.50
2023-05-09T05:16:56.331Z,101486.59
2023-05-09T05:19:22.879Z,101491.84
2023-05-09T05:21:50.263Z,101483.94
2023-05-09T05:24:16.813Z,101488.44
2023-05-09T05:26:45.733Z,101479.59
2023-05-09T05:29:12.285Z,101466.06
2023-05-09T05:31:38.907Z,101461.44
2023-05-09T05:34:05.601Z,101457.06
2023-05-09T05:36:32.248Z,101453.31
2023-05-09T05:38:58.842Z,101444.50
2023-05-09T05:41:26.230Z,101442.53
2023-05-09T05:43:54.349Z,101446.16
2023-05-09T05:46:21.312Z,101446.28
2023-05-09T05:48:48.036Z,101443.41
2023-05-09T05:51:14.615Z,101442.69
2023-05-09T05:53:41.263Z,101433.72
2023-05-09T05:56:07.898Z,101429.22
2023-05-09T05:58:37.488Z,101433.78
2023-05-09T06:01:04.208Z,101436.56
2023-05-09T06:03:30.922Z,101422.97
2023-05-09T06:05:57.858Z,101419.66
2023-05-09T06:08:24.425Z,101416.84
2023-05-09T06:10:51.790Z,101415.06
2023-05-09T06:13:18.405Z,101416.84
2023-05-09T06:15:45.007Z,101421.53
2023-05-09T06:18:11.635Z,101418.94
2023-05-09T06:20:38.247Z,101418.09
2023-05-09T06:23:04.809Z,101425.41
2023-05-09T06:25:32.135Z,101415.38
2023-05-09T06:27:58.664Z,101410.91
2023-05-09T06:30:28.329Z,101408.28
2023-05-09T06:32:55.557Z,101401.88
2023-05-09T06:35:22.342Z,101403.66
2023-05-09T06:37:49.295Z,101389.34
2023-05-09T06:40:16.501Z,101390.25
2023-05-09T06:42:43.081Z,101393.75
2023-05-09T06:45:10.067Z,101384.94
2023-05-09T06:47:36.785Z,101380.09
2023-05-09T06:50:03.807Z,101380.31
2023-05-09T06:52:30.456Z,101383.97
2023-05-09T06:54:57.032Z,101373.06
2023-05-09T06:57:23.763Z,101374.16
2023-05-09T06:59:50.697Z,101372.38
2023-05-09T07:02:17.300Z,101371.50
2023-05-09T07:04:43.884Z,101364.25
2023-05-09T07:07:10.465Z,101366.09
2023-05-09T07:09:37.047Z,101368.78
2023-05-09T07:12:03.774Z,101362.47
2023-05-09T07:14:30.327Z,101354.38
2023-05-09T07:17:09.925Z,101348.16
2023-05-09T07:19:43.412Z,101348.25
2023-05-09T07:22:10.011Z,101346.31
2023-05-09T07:24:38.265Z,101340.00
2023-05-09T07:27:04.865Z,101337.38
2023-05-09T07:29:31.425Z,101337.34
2023-05-09T07:31:58.003Z,101336.47
2023-05-09T07:34:25.477Z,101329.31
2023-05-09T07:36:52.133Z,101323.00
2023-05-09T07:39:18.749Z,101328.34
2023-05-09T07:41:45.985Z,101317.50
2023-05-09T07:44:16.998Z,101321.09
2023-05-09T07:46:46.628Z,101319.22
2023-05-09T07:49:13.208Z,101312.09
2023-05-09T07:51:39.781Z,101313.84
2023-05-09T07:54:06.383Z,101310.28
2023-05-09T07:56:32.973Z,101313.88
2023-05-09T07:58:59.526Z,101310.28
2023-05-09T08:01:26.305Z,101309.31
2023-05-09T08:03:53.138Z,101310.22
2023-05-09T08:06:19.911Z,101301.28
2023-05-09T08:08:46.581Z,101295.00
2023-05-09T08:11:13.170Z,101303.06
2023-05-09T08:13:39.799Z,101293.16
2023-05-09T08:16:06.712Z,101288.69
2023-05-09T08:18:33.294Z,101297.63
2023-05-09T08:20:59.997Z,101290.44
2023-05-09T08:23:30.382Z,101287.78
2023-05-09T08:25:57.038Z,101286.91
2023-05-09T08:28:24.296Z,101279.66
2023-05-09T08:30:56.354Z,101281.44
2023-05-09T08:33:23.049Z,101280.59
2023-05-09T08:35:53.050Z,101279.66
2023-05-09T08:38:19.679Z,101275.19
2023-05-09T08:40:46.485Z,101269.78
2023-05-09T08:43:17.623Z,101270.66
2023-05-09T08:45:51.707Z,101270.66
2023-05-09T08:48:18.865Z,101264.47
2023-05-09T08:50:45.438Z,101278.72
2023-05-09T08:53:12.444Z,101259.91
2023-05-09T08:55:39.274Z,101262.63
2023-05-09T08:58:06.170Z,101259.91
2023-05-09T09:00:33.397Z,101254.47
2023-05-09T09:03:04.325Z,101257.19
2023-05-09T09:05:41.268Z,101241.75
2023-05-09T09:08:09.658Z,101236.47
2023-05-09T09:10:40.686Z,101238.19
2023-05-09T09:13:07.512Z,101237.28
2023-05-09T09:15:37.809Z,101232.75
2023-05-09T09:18:09.072Z,101239.03
2023-05-09T09:20:37.783Z,101230.13
2023-05-09T09:23:11.046Z,101228.28
2023-05-09T09:25:37.656Z,101216.44
2023-05-09T09:28:05.886Z,101210.06
2023-05-09T09:30:32.640Z,101223.53
2023-05-09T09:32:59.405Z,101207.34
2023-05-09T09:35:26.154Z,101201.84
2023-05-09T09:37:59.746Z,101201.84
2023-05-09T09:40:26.761Z,101201.84
2023-05-09T09:42:53.358Z,101205.41
2023-05-09T09:45:20.373Z,101201.69
2023-05-09T09:47:51.501Z,101194.69
2023-05-09T09:50:20.237Z,101206.19
2023-05-09T09:52:53.495Z,101198.16
2023-05-09T09:55:20.810Z,101196.22
2023-05-09T09:57:48.339Z,101195.34
2023-05-09T10:00:17.323Z,101193.50
2023-05-09T10:02:52.135Z,101184.47
2023-05-09T10:05:26.167Z,101191.66
2023-05-09T10:08:04.340Z,101183.53
2023-05-09T10:10:36.260Z,101180.94
2023-05-09T10:13:07.687Z,101179.75
2023-05-09T10:15:49.049Z,101181.47
2023-05-09T10:18:27.601Z,101184.16
2023-05-09T10:20:56.577Z,101183.28
2023-05-09T10:23:25.566Z,101181.47
2023-05-09T10:26:12.604Z,101173.19
2023-05-09T10:28:40.735Z,101176.13
2023-05-09T10:31:10.269Z,101174.06
2023-05-09T10:33:46.470Z,101180.38
2023-05-09T10:36:16.523Z,101175.91
2023-05-09T10:38:43.674Z,101168.72
2023-05-09T10:41:14.313Z,101173.09
2023-05-09T10:43:41.052Z,101159.56
2023-05-09T10:46:07.706Z,101174.94
2023-05-09T10:48:34.627Z,101165.78
2023-05-09T10:51:03.320Z,101157.59
2023-05-09T10:53:56.566Z,101154.09
2023-05-09T10:56:29.445Z,101153.13
2023-05-09T10:58:56.569Z,101152.22
2023-05-09T11:01:39.431Z,101152.16
2023-05-09T11:04:14.561Z,101150.28
2023-05-09T11:06:44.769Z,101139.59
2023-05-09T11:09:29.698Z,101150.28
2023-05-09T11:12:16.477Z,101148.53
2023-05-09T11:14:50.549Z,101138.78
2023-05-09T11:17:32.453Z,101144.94
2023-05-09T11:20:07.662Z,101142.97
2023-05-09T11:22:44.833Z,101143.97
2023-05-09T11:25:15.416Z,101147.63
2023-05-09T11:27:52.247Z,101139.41
2023-05-09T11:30:20.228Z,101135.66
2023-05-09T11:32:53.921Z,101140.34
2023-05-09T11:35:22.104Z,101129.56
2023-05-09T11:37:52.383Z,101130.41
2023-05-09T11:40:28.416Z,101120.47
2023-05-09T11:42:58.418Z,101116.94
2023-05-09T11:45:34.277Z,101116.81
2023-05-09T11:48:01.351Z,101116.06
2023-05-09T11:50:28.452Z,101117.84
2023-05-09T11:52:55.058Z,101116.19
2023-05-09T11:55:32.687Z,101110.69
2023-05-09T11:57:59.504Z,101108.91
2023-05-09T12:00:26.540Z,101103.50
2023-05-09T12:03:00.775Z,101097.13
2023-05-09T12:05:28.221Z,101096.03
2023-05-09T12:07:55.847Z,101089.72
2023-05-09T12:10:23.182Z,101080.66
2023-05-09T12:12:51.711Z,101072.69
2023-05-09T12:15:21.407Z,101083.28
2023-05-09T12:17:50.555Z,101072.69
2023-05-09T12:20:21.557Z,101066.13
2023-05-09T12:22:55.077Z,101054.47
2023-05-09T12:25:27.502Z,101052.69
2023-05-09T12:27:54.690Z,101052.69
2023-05-09T12:30:21.391Z,101058.09
2023-05-09T12:32:48.303Z,101048.31
2023-05-09T12:35:19.286Z,101041.94
2023-05-09T12:40:38.721Z,101032.00
2023-05-09T12:43:05.811Z,101032.13
2023-05-09T12:45:33.710Z,101032.00
2023-05-09T12:48:02.491Z,101028.31
2023-05-09T12:50:39.010Z,101023.78
2023-05-09T12:53:05.584Z,101020.16
2023-05-09T12:55:42.348Z,101019.97
2023-05-09T12:58:12.845Z,101014.66
2023-05-09T13:00:46.228Z,101009.25
2023-05-09T13:03:25.898Z,101012.78
2023-05-09T13:06:00.058Z,101019.84
2023-05-09T13:08:28.982Z,101022.53
2023-05-09T13:11:07.743Z,101021.72
2023-05-09T13:13:41.323Z,101018.09
2023-05-09T13:16:10.077Z,101018.09
2023-05-09T13:18:43.768Z,101013.34
2023-05-09T13:21:10.397Z,101016.22
2023-05-09T13:23:37.173Z,101010.66
2023-05-09T13:26:03.769Z,101010.78
2023-05-09T13:28:30.470Z,101004.50
2023-05-09T13:30:57.285Z,100998.19
2023-05-09T13:33:26.563Z,100998.00
2023-05-09T13:35:53.414Z,101000.00
2023-05-09T13:38:19.973Z,100996.38
2023-05-09T13:40:46.608Z,101001.63
2023-05-09T13:43:13.190Z,101001.75
2023-05-09T13:45:39.781Z,101000.66
2023-05-09T13:48:08.966Z,100998.75
2023-05-09T13:50:35.842Z,100997.00
2023-05-09T13:53:03.352Z,100997.94
2023-05-09T13:55:30.860Z,100999.78
2023-05-09T13:57:57.650Z,101000.50
2023-05-09T14:00:27.209Z,100996.00
2023-05-09T14:02:53.998Z,100991.59
2023-05-09T14:05:23.684Z,100990.66
2023-05-09T14:07:52.427Z,100984.38
2023-05-09T14:10:22.238Z,100987.03
2023-05-09T14:12:55.093Z,100985.22
2023-05-09T14:15:24.693Z,100978.13
2023-05-09T14:17:51.453Z,100974.47
2023-05-09T14:20:18.186Z,100971.50
2023-05-09T14:22:45.045Z,100974.84
2023-05-09T14:25:11.594Z,100970.19
2023-05-09T14:27:38.201Z,100965.72
2023-05-09T14:30:05.293Z,100963.88
2023-05-09T14:32:31.847Z,100952.09
2023-05-09T14:34:58.445Z,100953.84
2023-05-09T14:37:25.026Z,100960.16
2023-05-09T14:39:51.707Z,100956.53
2023-05-09T14:42:19.777Z,100953.84
2023-05-09T14:44:47.401Z,100949.38
2023-05-09T14:47:14.079Z,100949.38
2023-05-09T14:49:41.384Z,100945.75
2023-05-09T14:52:07.993Z,100940.34
2023-05-09T14:54:36.474Z,100942.09
2023-05-09T14:57:04.929Z,100928.66
2023-05-09T14:59:31.596Z,100932.25
2023-05-09T15:01:58.187Z,100929.56
2023-05-09T15:04:28.374Z,100923.41
2023-05-09T15:06:55.023Z,100922.50
2023-05-09T15:09:21.645Z,100927.88
2023-05-09T15:11:49.263Z,100924.34
2023-05-09T15:14:16.679Z,100913.47
2023-05-09T15:16:43.632Z,100918.78
2023-05-09T15:19:10.208Z,100915.13
2023-05-09T15:21:36.828Z,100913.47
2023-05-09T15:24:08.252Z,100909.78
2023-05-09T15:26:34.875Z,100913.47
2023-05-09T15:29:01.419Z,100909.72
2023-05-09T15:31:35.460Z,100920.72
2023-05-09T15:34:04.798Z,100908.22
2023-05-09T15:36:32.157Z,100906.44
2023-05-09T15:38:58.922Z,100911.00
2023-05-09T15:41:25.629Z,100902.91
2023-05-09T15:43:55.285Z,100903.78
2023-05-09T15:46:24.846Z,100894.06
2023-05-09T15:48:52.156Z,100905.63
2023-05-09T15:51:19.953Z,100902.94
2023-05-09T15:53:46.508Z,100902.22
2023-05-09T15:56:13.044Z,100888.75
2023-05-09T15:58:40.384Z,100891.28
2023-05-09T16:01:08.251Z,100895.78
2023-05-09T16:03:35.142Z,100890.59
2023-05-09T16:06:04.582Z,100888.97
2023-05-09T16:08:31.162Z,100878.88
2023-05-09T16:11:00.806Z,100878.09
2023-05-09T16:13:27.529Z,100867.31
2023-05-09T16:15:56.936Z,100878.09
2023-05-09T16:18:26.653Z,100870.03
2023-05-09T16:20:53.210Z,100876.41
2023-05-09T16:23:21.637Z,100870.16
2023-05-09T16:25:51.883Z,100866.59
2023-05-09T16:28:19.465Z,100869.56
2023-05-09T16:30:48.476Z,100857.03
2023-05-09T16:33:15.080Z,100856.91
2023-05-09T16:35:41.690Z,100856.91
2023-05-09T16:38:08.290Z,100864.06
2023-05-09T16:40:34.891Z,100853.28
2023-05-09T16:43:01.683Z,100852.41
2023-05-09T16:45:31.609Z,100846.03
2023-05-09T16:48:00.651Z,100838.81
2023-05-09T16:50:28.937Z,100836.13
2023-05-09T16:52:59.303Z,100842.44
2023-05-09T16:55:29.060Z,100839.84
2023-05-09T16:57:58.253Z,100837.22
2023-05-09T17:00:24.849Z,100839.91
2023-05-09T17:02:51.490Z,100831.00
2023-05-09T17:05:18.406Z,100835.47
2023-05-09T17:07:45.127Z,100825.53
2023-05-09T17:10:12.085Z,100823.00
2023-05-09T17:12:42.029Z,100821.13
2023-05-09T17:15:14.503Z,100821.13
2023-05-09T17:17:41.087Z,100818.50
2023-05-09T17:20:11.558Z,100817.59
2023-05-09T17:22:39.143Z,100817.59
2023-05-09T17:25:06.759Z,100823.00
2023-05-09T17:27:33.397Z,100823.00
2023-05-09T17:29:59.961Z,100816.09
2023-05-09T17:32:26.600Z,100814.31
2023-05-09T17:34:54.386Z,100821.34
2023-05-09T17:37:20.973Z,100821.44
2023-05-09T17:39:47.570Z,100812.53
2023-05-09T17:42:14.143Z,100817.81
2023-05-09T17:44:43.036Z,100815.25
2023-05-09T17:47:12.585Z,100812.41
2023-05-09T17:49:39.155Z,100818.81
2023-05-09T17:52:05.706Z,100812.53
2023-05-09T17:54:32.267Z,100810.78
2023-05-09T17:57:02.157Z,100811.75
2023-05-09T17:59:28.901Z,100803.75
2023-05-09T18:01:55.725Z,100809.94
2023-05-09T18:04:22.425Z,100804.66
2023-05-09T18:06:49.390Z,100802.75
2023-05-09T18:09:16.063Z,100798.44
2023-05-09T18:11:42.600Z,100801.41
2023-05-09T18:14:09.214Z,100796.88
2023-05-09T18:16:35.884Z,100796.88
2023-05-09T18:19:02.466Z,100792.34
2023-05-09T18:21:29.426Z,100797.75
2023-05-09T18:23:57.231Z,100794.09
2023-05-09T18:26:24.017Z,100786.09
2023-05-09T18:28:50.629Z,100786.09
2023-05-09T18:31:17.267Z,100790.56
2023-05-09T18:33:43.923Z,100789.50
2023-05-09T18:36:11.206Z,100788.53
2023-05-09T18:38:38.660Z,100784.13
2023-05-09T18:41:09.425Z,100787.66
2023-05-09T18:43:38.688Z,100787.72
2023-05-09T18:46:05.785Z,100783.56
2023-05-09T18:48:32.909Z,100786.00
2023-05-09T18:50:59.450Z,100786.00
2023-05-09T18:53:26.716Z,100780.72
2023-05-09T18:55:53.432Z,100775.31
2023-05-09T18:58:21.320Z,100783.56
2023-05-09T19:00:48.062Z,100786.31
2023-05-09T19:03:14.694Z,100776.38
2023-05-09T19:05:41.445Z,100780.78
2023-05-09T19:08:10.290Z,100779.34
2023-05-09T19:10:37.980Z,100779.28
2023-05-09T19:13:06.004Z,100773.97
2023-05-09T19:15:33.366Z,100777.38
2023-05-09T19:18:00.492Z,100787.16
2023-05-09T19:20:29.558Z,100785.31
2023-05-09T19:23:03.447Z,100789.19
2023-05-09T19:25:33.691Z,100784.75
2023-05-09T19:28:00.395Z,100788.47
2023-05-09T19:30:27.011Z,100783.09
2023-05-09T19:32:53.634Z,100790.22
2023-05-09T19:35:20.605Z,100777.78
2023-05-09T19:37:47.188Z,100789.41
2023-05-09T19:40:14.170Z,100781.31
2023-05-09T19:42:41.910Z,100783.19
2023-05-09T19:45:09.046Z,100777.84
2023-05-09T19:47:35.753Z,100777.84
2023-05-09T19:50:02.411Z,100778.81
2023-05-09T19:52:29.919Z,100770.81
2023-05-09T19:54:56.550Z,100777.19
2023-05-09T19:57:23.102Z,100775.34
2023-05-09T19:59:49.679Z,100775.47
2023-05-09T20:02:16.290Z,100780.72
2023-05-09T20:04:49.558Z,100777.13
2023-05-09T20:07:16.642Z,100770.81
2023-05-09T20:09:47.016Z,100772.78
2023-05-09T20:12:16.744Z,100769.25
2023-05-09T20:14:45.871Z,100775.59
2023-05-09T20:17:12.439Z,100768.44
2023-05-09T20:19:39.106Z,100772.03
2023-05-09T20:22:13.078Z,100768.56
2023-05-09T20:24:42.164Z,100774.81
2023-05-09T20:27:08.717Z,100770.34
2023-05-09T20:29:35.318Z,100771.28
2023-05-09T20:32:01.888Z,100762.34
2023-05-09T20:34:28.475Z,100765.09
2023-05-09T20:36:55.168Z,100756.91
2023-05-09T20:39:21.777Z,100752.50
2023-05-09T20:41:49.209Z,100761.63
2023-05-09T20:44:17.676Z,100757.09
2023-05-09T20:46:47.619Z,100760.72
2023-05-09T20:49:16.784Z,100752.69
2023-05-09T20:51:43.349Z,100755.25
2023-05-09T20:54:12.529Z,100755.31
2023-05-09T20:56:39.096Z,100755.44
2023-05-09T20:59:08.660Z,100753.56
2023-05-09T21:01:43.899Z,100753.69
2023-05-09T21:04:31.366Z,100760.81
2023-05-09T21:07:00.530Z,100753.88
2023-05-09T21:09:27.089Z,100746.59
2023-05-09T21:11:58.199Z,100753.03
2023-05-09T21:14:24.774Z,100756.50
2023-05-09T21:16:55.088Z,100759.25
2023-05-09T21:19:22.862Z,100747.72
2023-05-09T21:21:57.004Z,100746.78
2023-05-09T21:24:23.561Z,100746.81
2023-05-09T21:26:50.729Z,100748.50
2023-05-09T21:29:19.900Z,100742.31
2023-05-09T21:31:46.507Z,100739.75
2023-05-09T21:34:13.130Z,100744.16
2023-05-09T21:36:42.793Z,100736.16
2023-05-09T21:39:13.217Z,100746.00
2023-05-09T21:41:46.343Z,100746.13
2023-05-09T21:44:16.158Z,100737.00
2023-05-09T21:46:46.416Z,100730.84
2023-05-09T21:49:36.414Z,100729.97
2023-05-09T21:52:06.359Z,100720.00
2023-05-09T21:54:32.963Z,100726.38
2023-05-09T21:56:59.551Z,100723.63
2023-05-09T21:59:29.191Z,100722.88
2023-05-09T22:01:55.777Z,100722.91
2023-05-09T22:04:22.390Z,100721.13
2023-05-09T22:06:51.261Z,100719.28
2023-05-09T22:09:18.061Z,100714.91
2023-05-09T22:11:47.232Z,100714.91
2023-05-09T22:14:13.764Z,100715.63
2023-05-09T22:16:40.331Z,100706.88
2023-05-09T22:19:10.010Z,100707.66
2023-05-09T22:21:36.562Z,100714.91
2023-05-09T22:24:06.988Z,100709.50
2023-05-09T22:26:33.646Z,100702.34
2023-05-09T22:29:00.427Z,100711.34
2023-05-09T22:31:31.069Z,100705.81
2023-05-09T22:33:57.661Z,100705.97
2023-05-09T22:36:25.034Z,100702.47
2023-05-09T22:38:51.659Z,100707.84
2023-05-09T22:41:18.228Z,100698.84
2023-05-09T22:43:46.607Z,100694.34
2023-05-09T22:46:13.207Z,100698.84
2023-05-09T22:48:39.828Z,100698.00
2023-05-09T22:51:06.451Z,100705.19
2023-05-09T22:53:33.031Z,100698.94
2023-05-09T22:56:01.893Z,100695.41
2023-05-09T22:58:28.477Z,100696.31
2023-05-09T23:00:55.108Z,100695.53
2023-05-09T23:03:21.815Z,100704.31
2023-05-09T23:05:48.924Z,100706.16
2023-05-09T23:08:18.318Z,100699.97
2023-05-09T23:10:52.025Z,100704.50
2023-05-09T23:13:18.625Z,100699.13
2023-05-09T23:15:49.745Z,100700.06
2023-05-09T23:18:17.122Z,100699.31
2023-05-09T23:20:46.420Z,100694.03
2023-05-09T23:23:15.662Z,100695.72
2023-05-09T23:25:42.188Z,100691.06
2023-05-09T23:28:08.762Z,100693.94
2023-05-09T23:30:35.367Z,100692.19
2023-05-09T23:33:01.990Z,100694.13
2023-05-09T23:35:28.569Z,100694.72
2023-05-09T23:37:58.003Z,100690.41
2023-05-09T23:40:24.552Z,100685.88
2023-05-09T23:42:53.669Z,100691.34
2023-05-09T23:45:22.860Z,100695.72
2023-05-09T23:47:49.469Z,100686.78
2023-05-09T23:50:16.212Z,100690.41
2023-05-09T23:52:42.990Z,100688.56
2023-05-09T23:55:09.935Z,100692.19
2023-05-09T23:57:36.521Z,100682.13
